sensor_id;sensor_type;location;lat;lon;timestamp;P1;durP1;ratioP1;P2;durP2;ratioP2
18170;SDS011;9210;48.358;10.902;2023-02-01T00:01:25;13.07;;;5.80;;
18170;SDS011;9210;48.358;10.902;2023-02-01T00:03:54;12.63;;;5.87;;
18170;SDS011;9210;48.358;10.902;2023-02-01T00:06:23;11.87;;;5.87;;
18170;SDS011;9210;48.358;10.902;2023-02-01T00:08:52;10.73;;;5.47;;
18170;SDS011;9210;48.358;10.902;2023-02-01T00:11:21;12.27;;;6.00;;
18170;SDS011;9210;48.358;10.902;2023-02-01T00:13:51;10.57;;;6.03;;
18170;SDS011;9210;48.358;10.902;2023-02-01T00:16:20;11.53;;;5.27;;
18170;SDS011;9210;48.358;10.902;2023-02-01T00:18:49;12.70;;;5.70;;
18170;SDS011;9210;48.358;10.902;2023-02-01T00:21:18;14.57;;;6.33;;
18170;SDS011;9210;48.358;10.902;2023-02-01T00:23:47;12.97;;;5.50;;
18170;SDS011;9210;48.358;10.902;2023-02-01T00:26:16;12.20;;;5.90;;
18170;SDS011;9210;48.358;10.902;2023-02-01T00:28:45;16.80;;;6.30;;
18170;SDS011;9210;48.358;10.902;2023-02-01T00:31:15;13.37;;;6.00;;
18170;SDS011;9210;48.358;10.902;2023-02-01T00:33:46;11.73;;;5.53;;
18170;SDS011;9210;48.358;10.902;2023-02-01T00:36:14;13.43;;;6.43;;
18170;SDS011;9210;48.358;10.902;2023-02-01T00:38:43;14.03;;;6.07;;
18170;SDS011;9210;48.358;10.902;2023-02-01T00:41:12;13.77;;;6.20;;
18170;SDS011;9210;48.358;10.902;2023-02-01T00:43:41;12.40;;;6.07;;
18170;SDS011;9210;48.358;10.902;2023-02-01T00:46:09;11.00;;;5.87;;
18170;SDS011;9210;48.358;10.902;2023-02-01T00:48:40;11.67;;;5.60;;
18170;SDS011;9210;48.358;10.902;2023-02-01T00:51:09;13.23;;;5.93;;
18170;SDS011;9210;48.358;10.902;2023-02-01T00:53:39;12.53;;;6.27;;
18170;SDS011;9210;48.358;10.902;2023-02-01T00:56:08;15.30;;;6.40;;
18170;SDS011;9210;48.358;10.902;2023-02-01T00:58:36;12.20;;;5.90;;
18170;SDS011;9210;48.358;10.902;2023-02-01T01:01:06;10.77;;;5.90;;
18170;SDS011;9210;48.358;10.902;2023-02-01T01:03:36;14.53;;;6.40;;
18170;SDS011;9210;48.358;10.902;2023-02-01T01:06:06;12.63;;;6.00;;
18170;SDS011;9210;48.358;10.902;2023-02-01T01:08:35;13.83;;;5.70;;
18170;SDS011;9210;48.358;10.902;2023-02-01T01:11:04;15.67;;;5.90;;
18170;SDS011;9210;48.358;10.902;2023-02-01T01:13:33;12.20;;;6.37;;
18170;SDS011;9210;48.358;10.902;2023-02-01T01:16:02;11.20;;;6.13;;
18170;SDS011;9210;48.358;10.902;2023-02-01T01:18:31;13.10;;;6.23;;
18170;SDS011;9210;48.358;10.902;2023-02-01T01:21:00;10.80;;;5.77;;
18170;SDS011;9210;48.358;10.902;2023-02-01T01:23:30;11.63;;;6.37;;
18170;SDS011;9210;48.358;10.902;2023-02-01T01:25:58;14.67;;;6.10;;
18170;SDS011;9210;48.358;10.902;2023-02-01T01:28:27;10.13;;;5.47;;
18170;SDS011;9210;48.358;10.902;2023-02-01T01:30:55;12.77;;;6.50;;
18170;SDS011;9210;48.358;10.902;2023-02-01T01:33:23;12.47;;;5.90;;
18170;SDS011;9210;48.358;10.902;2023-02-01T01:35:52;12.70;;;6.33;;
18170;SDS011;9210;48.358;10.902;2023-02-01T01:38:20;12.20;;;6.00;;
18170;SDS011;9210;48.358;10.902;2023-02-01T01:40:51;13.87;;;6.57;;
18170;SDS011;9210;48.358;10.902;2023-02-01T01:43:19;13.30;;;6.50;;
18170;SDS011;9210;48.358;10.902;2023-02-01T01:45:49;14.33;;;6.43;;
18170;SDS011;9210;48.358;10.902;2023-02-01T01:48:20;10.83;;;6.00;;
18170;SDS011;9210;48.358;10.902;2023-02-01T01:50:50;11.10;;;6.50;;
18170;SDS011;9210;48.358;10.902;2023-02-01T01:53:20;12.20;;;6.43;;
18170;SDS011;9210;48.358;10.902;2023-02-01T01:55:51;14.57;;;7.40;;
18170;SDS011;9210;48.358;10.902;2023-02-01T01:58:22;14.00;;;7.27;;
18170;SDS011;9210;48.358;10.902;2023-02-01T02:00:51;13.57;;;6.77;;
18170;SDS011;9210;48.358;10.902;2023-02-01T02:03:21;15.43;;;6.70;;
18170;SDS011;9210;48.358;10.902;2023-02-01T02:05:52;13.70;;;6.60;;
18170;SDS011;9210;48.358;10.902;2023-02-01T02:08:21;18.10;;;7.20;;
18170;SDS011;9210;48.358;10.902;2023-02-01T02:10:51;12.57;;;6.57;;
18170;SDS011;9210;48.358;10.902;2023-02-01T02:13:29;16.07;;;6.53;;
18170;SDS011;9210;48.358;10.902;2023-02-01T02:16:03;12.33;;;6.40;;
18170;SDS011;9210;48.358;10.902;2023-02-01T02:18:35;14.07;;;6.93;;
18170;SDS011;9210;48.358;10.902;2023-02-01T02:21:10;12.07;;;6.53;;
18170;SDS011;9210;48.358;10.902;2023-02-01T02:26:26;13.77;;;6.73;;
18170;SDS011;9210;48.358;10.902;2023-02-01T02:29:15;13.23;;;6.77;;
18170;SDS011;9210;48.358;10.902;2023-02-01T02:31:56;12.50;;;6.73;;
18170;SDS011;9210;48.358;10.902;2023-02-01T02:34:31;11.53;;;6.40;;
18170;SDS011;9210;48.358;10.902;2023-02-01T02:37:08;15.43;;;6.80;;
18170;SDS011;9210;48.358;10.902;2023-02-01T02:39:41;14.93;;;6.80;;
18170;SDS011;9210;48.358;10.902;2023-02-01T02:42:13;13.13;;;6.13;;
18170;SDS011;9210;48.358;10.902;2023-02-01T02:45:04;10.33;;;5.60;;
18170;SDS011;9210;48.358;10.902;2023-02-01T02:47:53;13.77;;;6.67;;
18170;SDS011;9210;48.358;10.902;2023-02-01T02:50:25;13.87;;;6.17;;
18170;SDS011;9210;48.358;10.902;2023-02-01T02:53:12;12.10;;;6.33;;
18170;SDS011;9210;48.358;10.902;2023-02-01T02:55:59;12.30;;;6.20;;
18170;SDS011;9210;48.358;10.902;2023-02-01T02:58:46;12.10;;;6.10;;
18170;SDS011;9210;48.358;10.902;2023-02-01T03:01:32;12.50;;;6.30;;
18170;SDS011;9210;48.358;10.902;2023-02-01T03:04:19;14.13;;;6.57;;
18170;SDS011;9210;48.358;10.902;2023-02-01T03:06:51;13.83;;;6.07;;
18170;SDS011;9210;48.358;10.902;2023-02-01T03:09:21;12.63;;;6.50;;
18170;SDS011;9210;48.358;10.902;2023-02-01T03:11:51;10.77;;;6.03;;
18170;SDS011;9210;48.358;10.902;2023-02-01T03:14:38;11.90;;;5.60;;
18170;SDS011;9210;48.358;10.902;2023-02-01T03:17:10;12.23;;;5.93;;
18170;SDS011;9210;48.358;10.902;2023-02-01T03:19:40;12.03;;;5.87;;
18170;SDS011;9210;48.358;10.902;2023-02-01T03:22:16;12.17;;;6.33;;
18170;SDS011;9210;48.358;10.902;2023-02-01T03:24:46;11.83;;;5.93;;
18170;SDS011;9210;48.358;10.902;2023-02-01T03:27:17;12.10;;;6.00;;
18170;SDS011;9210;48.358;10.902;2023-02-01T03:29:48;14.53;;;6.50;;
18170;SDS011;9210;48.358;10.902;2023-02-01T03:32:16;11.27;;;5.40;;
18170;SDS011;9210;48.358;10.902;2023-02-01T03:34:46;12.03;;;5.73;;
18170;SDS011;9210;48.358;10.902;2023-02-01T03:37:18;11.57;;;5.70;;
18170;SDS011;9210;48.358;10.902;2023-02-01T03:39:52;9.70;;;5.13;;
18170;SDS011;9210;48.358;10.902;2023-02-01T03:42:24;11.33;;;5.63;;
18170;SDS011;9210;48.358;10.902;2023-02-01T03:44:57;8.70;;;5.13;;
18170;SDS011;9210;48.358;10.902;2023-02-01T03:47:29;11.83;;;5.40;;
18170;SDS011;9210;48.358;10.902;2023-02-01T03:50:00;9.93;;;4.83;;
18170;SDS011;9210;48.358;10.902;2023-02-01T03:52:32;9.73;;;5.30;;
18170;SDS011;9210;48.358;10.902;2023-02-01T03:55:03;9.53;;;5.00;;
18170;SDS011;9210;48.358;10.902;2023-02-01T03:57:33;11.07;;;5.77;;
18170;SDS011;9210;48.358;10.902;2023-02-01T04:00:04;8.13;;;4.50;;
18170;SDS011;9210;48.358;10.902;2023-02-01T04:02:39;7.60;;;4.40;;
18170;SDS011;9210;48.358;10.902;2023-02-01T04:05:08;13.03;;;4.90;;
18170;SDS011;9210;48.358;10.902;2023-02-01T04:07:43;7.30;;;4.57;;
18170;SDS011;9210;48.358;10.902;2023-02-01T04:10:12;8.47;;;4.90;;
18170;SDS011;9210;48.358;10.902;2023-02-01T04:12:44;8.87;;;4.60;;
18170;SDS011;9210;48.358;10.902;2023-02-01T04:15:13;9.17;;;4.30;;
18170;SDS011;9210;48.358;10.902;2023-02-01T04:17:41;8.20;;;4.67;;
18170;SDS011;9210;48.358;10.902;2023-02-01T04:20:10;6.97;;;3.93;;
18170;SDS011;9210;48.358;10.902;2023-02-01T04:22:40;9.77;;;4.47;;
18170;SDS011;9210;48.358;10.902;2023-02-01T04:25:09;9.27;;;4.50;;
18170;SDS011;9210;48.358;10.902;2023-02-01T04:27:37;8.60;;;3.90;;
18170;SDS011;9210;48.358;10.902;2023-02-01T04:30:09;9.50;;;4.53;;
18170;SDS011;9210;48.358;10.902;2023-02-01T04:32:38;7.63;;;4.10;;
18170;SDS011;9210;48.358;10.902;2023-02-01T04:35:07;8.80;;;4.60;;
18170;SDS011;9210;48.358;10.902;2023-02-01T04:37:35;7.27;;;4.17;;
18170;SDS011;9210;48.358;10.902;2023-02-01T04:40:06;7.90;;;4.10;;
18170;SDS011;9210;48.358;10.902;2023-02-01T04:42:34;8.70;;;4.40;;
18170;SDS011;9210;48.358;10.902;2023-02-01T04:45:03;8.83;;;4.63;;
18170;SDS011;9210;48.358;10.902;2023-02-01T04:47:32;6.80;;;4.10;;
18170;SDS011;9210;48.358;10.902;2023-02-01T04:50:00;8.57;;;4.53;;
18170;SDS011;9210;48.358;10.902;2023-02-01T04:52:29;6.90;;;4.27;;
18170;SDS011;9210;48.358;10.902;2023-02-01T04:54:57;9.83;;;4.73;;
18170;SDS011;9210;48.358;10.902;2023-02-01T04:57:28;8.67;;;4.60;;
18170;SDS011;9210;48.358;10.902;2023-02-01T04:59:56;7.40;;;4.60;;
18170;SDS011;9210;48.358;10.902;2023-02-01T05:02:24;7.27;;;4.33;;
18170;SDS011;9210;48.358;10.902;2023-02-01T05:04:53;9.97;;;4.53;;
18170;SDS011;9210;48.358;10.902;2023-02-01T05:07:22;12.13;;;5.30;;
18170;SDS011;9210;48.358;10.902;2023-02-01T05:09:50;9.17;;;4.73;;
18170;SDS011;9210;48.358;10.902;2023-02-01T05:12:19;9.13;;;4.80;;
18170;SDS011;9210;48.358;10.902;2023-02-01T05:15:06;8.43;;;4.33;;
18170;SDS011;9210;48.358;10.902;2023-02-01T05:17:35;8.53;;;4.13;;
18170;SDS011;9210;48.358;10.902;2023-02-01T05:20:04;8.13;;;4.40;;
18170;SDS011;9210;48.358;10.902;2023-02-01T05:22:32;9.13;;;4.30;;
18170;SDS011;9210;48.358;10.902;2023-02-01T05:25:01;9.90;;;4.60;;
18170;SDS011;9210;48.358;10.902;2023-02-01T05:27:29;7.47;;;4.17;;
18170;SDS011;9210;48.358;10.902;2023-02-01T05:29:57;8.20;;;4.57;;
18170;SDS011;9210;48.358;10.902;2023-02-01T05:32:27;7.17;;;4.40;;
18170;SDS011;9210;48.358;10.902;2023-02-01T05:34:56;8.83;;;4.73;;
18170;SDS011;9210;48.358;10.902;2023-02-01T05:37:25;8.40;;;4.50;;
18170;SDS011;9210;48.358;10.902;2023-02-01T05:39:55;7.70;;;3.93;;
18170;SDS011;9210;48.358;10.902;2023-02-01T05:42:24;7.83;;;4.40;;
18170;SDS011;9210;48.358;10.902;2023-02-01T05:44:52;7.97;;;3.83;;
18170;SDS011;9210;48.358;10.902;2023-02-01T05:47:21;7.90;;;4.50;;
18170;SDS011;9210;48.358;10.902;2023-02-01T05:49:51;7.50;;;4.13;;
18170;SDS011;9210;48.358;10.902;2023-02-01T05:52:19;9.33;;;4.70;;
18170;SDS011;9210;48.358;10.902;2023-02-01T05:54:48;9.87;;;4.03;;
18170;SDS011;9210;48.358;10.902;2023-02-01T05:57:16;6.83;;;4.20;;
18170;SDS011;9210;48.358;10.902;2023-02-01T05:59:45;8.33;;;4.20;;
18170;SDS011;9210;48.358;10.902;2023-02-01T06:02:15;9.13;;;4.57;;
18170;SDS011;9210;48.358;10.902;2023-02-01T06:04:43;8.77;;;4.27;;
18170;SDS011;9210;48.358;10.902;2023-02-01T06:07:13;7.43;;;3.73;;
18170;SDS011;9210;48.358;10.902;2023-02-01T06:09:42;8.73;;;4.10;;
18170;SDS011;9210;48.358;10.902;2023-02-01T06:12:13;7.53;;;4.10;;
18170;SDS011;9210;48.358;10.902;2023-02-01T06:14:41;7.00;;;3.70;;
18170;SDS011;9210;48.358;10.902;2023-02-01T06:17:10;6.57;;;3.80;;
18170;SDS011;9210;48.358;10.902;2023-02-01T06:19:38;8.43;;;4.13;;
18170;SDS011;9210;48.358;10.902;2023-02-01T06:22:07;8.00;;;3.80;;
18170;SDS011;9210;48.358;10.902;2023-02-01T06:24:37;7.10;;;3.80;;
18170;SDS011;9210;48.358;10.902;2023-02-01T06:27:05;6.57;;;3.77;;
18170;SDS011;9210;48.358;10.902;2023-02-01T06:29:35;7.27;;;3.97;;
18170;SDS011;9210;48.358;10.902;2023-02-01T06:32:04;6.70;;;4.20;;
18170;SDS011;9210;48.358;10.902;2023-02-01T06:34:33;8.37;;;4.13;;
18170;SDS011;9210;48.358;10.902;2023-02-01T06:37:03;6.27;;;4.20;;
18170;SDS011;9210;48.358;10.902;2023-02-01T06:39:31;8.40;;;4.60;;
18170;SDS011;9210;48.358;10.902;2023-02-01T06:42:01;7.40;;;4.47;;
18170;SDS011;9210;48.358;10.902;2023-02-01T06:44:30;9.07;;;4.50;;
18170;SDS011;9210;48.358;10.902;2023-02-01T06:46:58;8.57;;;4.23;;
18170;SDS011;9210;48.358;10.902;2023-02-01T06:49:28;9.27;;;4.40;;
18170;SDS011;9210;48.358;10.902;2023-02-01T06:51:57;7.80;;;4.23;;
18170;SDS011;9210;48.358;10.902;2023-02-01T06:54:26;9.00;;;4.70;;
18170;SDS011;9210;48.358;10.902;2023-02-01T06:56:57;8.23;;;4.30;;
18170;SDS011;9210;48.358;10.902;2023-02-01T06:59:26;9.27;;;4.90;;
18170;SDS011;9210;48.358;10.902;2023-02-01T07:01:55;7.10;;;4.07;;
18170;SDS011;9210;48.358;10.902;2023-02-01T07:04:23;8.50;;;4.27;;
18170;SDS011;9210;48.358;10.902;2023-02-01T07:06:52;7.37;;;4.50;;
18170;SDS011;9210;48.358;10.902;2023-02-01T07:09:20;7.83;;;4.43;;
18170;SDS011;9210;48.358;10.902;2023-02-01T07:11:49;10.17;;;4.80;;
18170;SDS011;9210;48.358;10.902;2023-02-01T07:14:17;8.23;;;4.87;;
18170;SDS011;9210;48.358;10.902;2023-02-01T07:16:47;7.53;;;4.33;;
18170;SDS011;9210;48.358;10.902;2023-02-01T07:19:15;10.83;;;4.77;;
18170;SDS011;9210;48.358;10.902;2023-02-01T07:21:44;8.87;;;4.43;;
18170;SDS011;9210;48.358;10.902;2023-02-01T07:24:13;8.93;;;4.47;;
18170;SDS011;9210;48.358;10.902;2023-02-01T07:26:41;9.57;;;4.83;;
18170;SDS011;9210;48.358;10.902;2023-02-01T07:29:10;8.17;;;4.43;;
18170;SDS011;9210;48.358;10.902;2023-02-01T07:31:38;9.10;;;4.70;;
18170;SDS011;9210;48.358;10.902;2023-02-01T07:34:08;7.73;;;4.00;;
18170;SDS011;9210;48.358;10.902;2023-02-01T07:36:37;8.50;;;4.13;;
18170;SDS011;9210;48.358;10.902;2023-02-01T07:39:05;6.80;;;3.80;;
18170;SDS011;9210;48.358;10.902;2023-02-01T07:41:34;9.73;;;4.10;;
18170;SDS011;9210;48.358;10.902;2023-02-01T07:44:02;7.20;;;4.03;;
18170;SDS011;9210;48.358;10.902;2023-02-01T07:46:31;7.70;;;4.00;;
18170;SDS011;9210;48.358;10.902;2023-02-01T07:48:59;7.87;;;4.10;;
18170;SDS011;9210;48.358;10.902;2023-02-01T07:51:29;8.23;;;3.47;;
18170;SDS011;9210;48.358;10.902;2023-02-01T07:53:58;7.30;;;3.50;;
18170;SDS011;9210;48.358;10.902;2023-02-01T07:56:26;10.60;;;3.63;;
18170;SDS011;9210;48.358;10.902;2023-02-01T07:58:54;7.77;;;3.37;;
18170;SDS011;9210;48.358;10.902;2023-02-01T08:01:24;6.33;;;3.43;;
18170;SDS011;9210;48.358;10.902;2023-02-01T08:03:53;5.53;;;3.37;;
18170;SDS011;9210;48.358;10.902;2023-02-01T08:06:22;6.77;;;3.37;;
18170;SDS011;9210;48.358;10.902;2023-02-01T08:08:53;9.07;;;4.10;;
18170;SDS011;9210;48.358;10.902;2023-02-01T08:11:22;5.83;;;3.43;;
18170;SDS011;9210;48.358;10.902;2023-02-01T08:13:51;5.93;;;3.20;;
18170;SDS011;9210;48.358;10.902;2023-02-01T08:16:20;5.30;;;3.10;;
18170;SDS011;9210;48.358;10.902;2023-02-01T08:18:49;6.50;;;3.20;;
18170;SDS011;9210;48.358;10.902;2023-02-01T08:21:19;8.83;;;3.37;;
18170;SDS011;9210;48.358;10.902;2023-02-01T08:23:48;6.70;;;3.27;;
18170;SDS011;9210;48.358;10.902;2023-02-01T08:26:19;5.27;;;3.03;;
18170;SDS011;9210;48.358;10.902;2023-02-01T08:28:48;6.23;;;2.80;;
18170;SDS011;9210;48.358;10.902;2023-02-01T08:31:19;6.90;;;3.70;;
18170;SDS011;9210;48.358;10.902;2023-02-01T08:33:49;5.80;;;3.13;;
18170;SDS011;9210;48.358;10.902;2023-02-01T08:36:18;8.70;;;3.90;;
18170;SDS011;9210;48.358;10.902;2023-02-01T08:38:47;6.00;;;3.43;;
18170;SDS011;9210;48.358;10.902;2023-02-01T08:41:16;7.20;;;3.43;;
18170;SDS011;9210;48.358;10.902;2023-02-01T08:43:46;5.83;;;3.40;;
18170;SDS011;9210;48.358;10.902;2023-02-01T08:46:15;7.03;;;3.53;;
18170;SDS011;9210;48.358;10.902;2023-02-01T08:48:45;5.47;;;3.23;;
18170;SDS011;9210;48.358;10.902;2023-02-01T08:51:14;5.40;;;3.20;;
18170;SDS011;9210;48.358;10.902;2023-02-01T08:53:43;6.30;;;3.10;;
18170;SDS011;9210;48.358;10.902;2023-02-01T08:56:13;6.83;;;3.30;;
18170;SDS011;9210;48.358;10.902;2023-02-01T08:58:41;6.03;;;3.10;;
18170;SDS011;9210;48.358;10.902;2023-02-01T09:01:14;5.70;;;3.17;;
18170;SDS011;9210;48.358;10.902;2023-02-01T09:03:43;8.47;;;3.10;;
18170;SDS011;9210;48.358;10.902;2023-02-01T09:06:13;6.00;;;3.13;;
18170;SDS011;9210;48.358;10.902;2023-02-01T09:08:42;5.93;;;2.93;;
18170;SDS011;9210;48.358;10.902;2023-02-01T09:11:11;5.90;;;2.90;;
18170;SDS011;9210;48.358;10.902;2023-02-01T09:13:40;5.40;;;2.87;;
18170;SDS011;9210;48.358;10.902;2023-02-01T09:16:09;5.60;;;2.80;;
18170;SDS011;9210;48.358;10.902;2023-02-01T09:18:39;4.47;;;3.07;;
18170;SDS011;9210;48.358;10.902;2023-02-01T09:21:21;5.13;;;3.00;;
18170;SDS011;9210;48.358;10.902;2023-02-01T09:23:50;5.73;;;3.17;;
18170;SDS011;9210;48.358;10.902;2023-02-01T09:26:18;7.40;;;3.37;;
18170;SDS011;9210;48.358;10.902;2023-02-01T09:28:56;4.67;;;2.83;;
18170;SDS011;9210;48.358;10.902;2023-02-01T09:31:24;6.60;;;2.80;;
18170;SDS011;9210;48.358;10.902;2023-02-01T09:33:54;6.33;;;3.50;;
18170;SDS011;9210;48.358;10.902;2023-02-01T09:36:22;7.23;;;3.03;;
18170;SDS011;9210;48.358;10.902;2023-02-01T09:38:50;5.77;;;3.47;;
18170;SDS011;9210;48.358;10.902;2023-02-01T09:41:23;5.50;;;3.20;;
18170;SDS011;9210;48.358;10.902;2023-02-01T09:44:01;6.90;;;3.77;;
18170;SDS011;9210;48.358;10.902;2023-02-01T09:46:40;8.87;;;3.33;;
18170;SDS011;9210;48.358;10.902;2023-02-01T09:49:12;4.50;;;3.07;;
18170;SDS011;9210;48.358;10.902;2023-02-01T09:51:44;5.77;;;3.23;;
18170;SDS011;9210;48.358;10.902;2023-02-01T09:54:16;6.00;;;3.30;;
18170;SDS011;9210;48.358;10.902;2023-02-01T09:56:46;7.23;;;3.47;;
18170;SDS011;9210;48.358;10.902;2023-02-01T09:59:20;6.07;;;3.30;;
18170;SDS011;9210;48.358;10.902;2023-02-01T10:01:51;7.03;;;3.37;;
18170;SDS011;9210;48.358;10.902;2023-02-01T10:04:21;7.23;;;3.00;;
18170;SDS011;9210;48.358;10.902;2023-02-01T10:06:53;7.20;;;3.40;;
18170;SDS011;9210;48.358;10.902;2023-02-01T10:09:33;10.43;;;3.40;;
18170;SDS011;9210;48.358;10.902;2023-02-01T10:12:16;6.23;;;2.90;;
18170;SDS011;9210;48.358;10.902;2023-02-01T10:14:52;6.53;;;3.00;;
18170;SDS011;9210;48.358;10.902;2023-02-01T10:17:28;6.53;;;3.23;;
18170;SDS011;9210;48.358;10.902;2023-02-01T10:20:04;5.30;;;2.80;;
18170;SDS011;9210;48.358;10.902;2023-02-01T10:22:36;6.33;;;3.10;;
18170;SDS011;9210;48.358;10.902;2023-02-01T10:25:26;5.83;;;3.20;;
18170;SDS011;9210;48.358;10.902;2023-02-01T10:27:56;6.60;;;3.07;;
18170;SDS011;9210;48.358;10.902;2023-02-01T10:30:27;4.67;;;3.03;;
18170;SDS011;9210;48.358;10.902;2023-02-01T10:33:01;6.30;;;3.30;;
18170;SDS011;9210;48.358;10.902;2023-02-01T10:35:36;9.77;;;3.17;;
18170;SDS011;9210;48.358;10.902;2023-02-01T10:38:07;9.10;;;3.80;;
18170;SDS011;9210;48.358;10.902;2023-02-01T10:40:39;9.10;;;3.70;;
18170;SDS011;9210;48.358;10.902;2023-02-01T10:43:07;6.57;;;3.27;;
18170;SDS011;9210;48.358;10.902;2023-02-01T10:45:37;5.47;;;3.23;;
18170;SDS011;9210;48.358;10.902;2023-02-01T10:48:08;7.33;;;2.97;;
18170;SDS011;9210;48.358;10.902;2023-02-01T10:50:38;5.83;;;3.27;;
18170;SDS011;9210;48.358;10.902;2023-02-01T10:53:10;7.67;;;3.30;;
18170;SDS011;9210;48.358;10.902;2023-02-01T10:55:40;9.60;;;4.30;;
18170;SDS011;9210;48.358;10.902;2023-02-01T10:58:14;7.90;;;4.37;;
18170;SDS011;9210;48.358;10.902;2023-02-01T11:00:44;5.80;;;3.30;;
18170;SDS011;9210;48.358;10.902;2023-02-01T11:03:30;5.80;;;2.87;;
18170;SDS011;9210;48.358;10.902;2023-02-01T11:06:00;8.63;;;3.80;;
18170;SDS011;9210;48.358;10.902;2023-02-01T11:08:29;8.60;;;3.20;;
18170;SDS011;9210;48.358;10.902;2023-02-01T11:10:59;9.07;;;3.53;;
18170;SDS011;9210;48.358;10.902;2023-02-01T11:13:28;5.57;;;3.47;;
18170;SDS011;9210;48.358;10.902;2023-02-01T11:15:57;6.10;;;3.30;;
18170;SDS011;9210;48.358;10.902;2023-02-01T11:18:27;6.87;;;3.57;;
18170;SDS011;9210;48.358;10.902;2023-02-01T11:20:55;10.30;;;3.80;;
18170;SDS011;9210;48.358;10.902;2023-02-01T11:23:26;6.27;;;3.63;;
18170;SDS011;9210;48.358;10.902;2023-02-01T11:25:56;8.03;;;3.63;;
18170;SDS011;9210;48.358;10.902;2023-02-01T11:28:27;9.07;;;3.80;;
18170;SDS011;9210;48.358;10.902;2023-02-01T11:30:58;7.27;;;3.47;;
18170;SDS011;9210;48.358;10.902;2023-02-01T11:33:29;5.73;;;3.33;;
18170;SDS011;9210;48.358;10.902;2023-02-01T11:36:05;7.87;;;3.83;;
18170;SDS011;9210;48.358;10.902;2023-02-01T11:38:36;10.03;;;3.80;;
18170;SDS011;9210;48.358;10.902;2023-02-01T11:41:11;7.13;;;4.00;;
18170;SDS011;9210;48.358;10.902;2023-02-01T11:43:51;5.83;;;3.33;;
18170;SDS011;9210;48.358;10.902;2023-02-01T11:46:21;8.40;;;3.43;;
18170;SDS011;9210;48.358;10.902;2023-02-01T11:48:53;8.50;;;4.20;;
18170;SDS011;9210;48.358;10.902;2023-02-01T11:51:29;9.20;;;4.33;;
18170;SDS011;9210;48.358;10.902;2023-02-01T11:54:06;10.30;;;3.90;;
18170;SDS011;9210;48.358;10.902;2023-02-01T11:56:36;9.67;;;3.90;;
18170;SDS011;9210;48.358;10.902;2023-02-01T11:59:09;9.00;;;4.03;;
18170;SDS011;9210;48.358;10.902;2023-02-01T12:01:47;8.13;;;3.50;;
18170;SDS011;9210;48.358;10.902;2023-02-01T12:04:22;8.63;;;4.00;;
18170;SDS011;9210;48.358;10.902;2023-02-01T12:06:56;8.07;;;3.80;;
18170;SDS011;9210;48.358;10.902;2023-02-01T12:09:39;9.70;;;3.80;;
18170;SDS011;9210;48.358;10.902;2023-02-01T12:12:13;10.87;;;3.70;;
18170;SDS011;9210;48.358;10.902;2023-02-01T12:14:55;6.83;;;3.57;;
18170;SDS011;9210;48.358;10.902;2023-02-01T12:17:34;5.67;;;3.50;;
18170;SDS011;9210;48.358;10.902;2023-02-01T12:20:13;9.83;;;3.47;;
18170;SDS011;9210;48.358;10.902;2023-02-01T12:22:49;7.20;;;3.23;;
18170;SDS011;9210;48.358;10.902;2023-02-01T12:25:23;11.53;;;3.90;;
18170;SDS011;9210;48.358;10.902;2023-02-01T12:27:57;7.93;;;3.63;;
18170;SDS011;9210;48.358;10.902;2023-02-01T12:33:26;11.40;;;3.50;;
18170;SDS011;9210;48.358;10.902;2023-02-01T12:35:59;8.53;;;3.37;;
18170;SDS011;9210;48.358;10.902;2023-02-01T12:38:35;11.13;;;3.30;;
18170;SDS011;9210;48.358;10.902;2023-02-01T12:41:09;7.07;;;3.30;;
18170;SDS011;9210;48.358;10.902;2023-02-01T12:43:42;8.03;;;3.50;;
18170;SDS011;9210;48.358;10.902;2023-02-01T12:46:13;9.83;;;3.50;;
18170;SDS011;9210;48.358;10.902;2023-02-01T12:48:46;6.27;;;3.20;;
18170;SDS011;9210;48.358;10.902;2023-02-01T12:51:17;8.37;;;3.60;;
18170;SDS011;9210;48.358;10.902;2023-02-01T12:53:47;10.03;;;3.57;;
18170;SDS011;9210;48.358;10.902;2023-02-01T12:56:21;9.10;;;3.60;;
18170;SDS011;9210;48.358;10.902;2023-02-01T12:58:51;9.97;;;4.00;;
18170;SDS011;9210;48.358;10.902;2023-02-01T13:01:22;10.60;;;3.63;;
18170;SDS011;9210;48.358;10.902;2023-02-01T13:03:56;7.77;;;3.80;;
18170;SDS011;9210;48.358;10.902;2023-02-01T13:06:27;8.43;;;3.60;;
18170;SDS011;9210;48.358;10.902;2023-02-01T13:08:58;7.97;;;3.37;;
18170;SDS011;9210;48.358;10.902;2023-02-01T13:11:30;10.40;;;3.73;;
18170;SDS011;9210;48.358;10.902;2023-02-01T13:14:00;8.97;;;3.40;;
18170;SDS011;9210;48.358;10.902;2023-02-01T13:16:30;9.80;;;4.07;;
18170;SDS011;9210;48.358;10.902;2023-02-01T13:19:00;6.43;;;3.57;;
18170;SDS011;9210;48.358;10.902;2023-02-01T13:21:31;9.43;;;4.07;;
18170;SDS011;9210;48.358;10.902;2023-02-01T13:24:01;12.33;;;3.77;;
18170;SDS011;9210;48.358;10.902;2023-02-01T13:26:31;8.00;;;3.87;;
18170;SDS011;9210;48.358;10.902;2023-02-01T13:29:00;5.77;;;3.27;;
18170;SDS011;9210;48.358;10.902;2023-02-01T13:31:33;8.43;;;3.87;;
18170;SDS011;9210;48.358;10.902;2023-02-01T13:36:56;12.47;;;3.47;;
18170;SDS011;9210;48.358;10.902;2023-02-01T13:39:39;9.00;;;3.30;;
18170;SDS011;9210;48.358;10.902;2023-02-01T13:42:15;10.43;;;3.53;;
18170;SDS011;9210;48.358;10.902;2023-02-01T13:44:45;5.17;;;3.17;;
18170;SDS011;9210;48.358;10.902;2023-02-01T13:47:18;6.77;;;3.17;;
18170;SDS011;9210;48.358;10.902;2023-02-01T13:49:49;5.03;;;3.00;;
18170;SDS011;9210;48.358;10.902;2023-02-01T13:52:24;8.37;;;3.27;;
18170;SDS011;9210;48.358;10.902;2023-02-01T13:55:03;5.27;;;2.60;;
18170;SDS011;9210;48.358;10.902;2023-02-01T13:57:43;4.70;;;3.00;;
18170;SDS011;9210;48.358;10.902;2023-02-01T14:00:23;6.30;;;3.63;;
18170;SDS011;9210;48.358;10.902;2023-02-01T14:05:59;7.37;;;3.63;;
18170;SDS011;9210;48.358;10.902;2023-02-01T14:08:41;7.73;;;3.27;;
18170;SDS011;9210;48.358;10.902;2023-02-01T14:14:00;9.30;;;3.60;;
18170;SDS011;9210;48.358;10.902;2023-02-01T14:16:35;7.93;;;3.83;;
18170;SDS011;9210;48.358;10.902;2023-02-01T14:19:03;6.83;;;2.93;;
18170;SDS011;9210;48.358;10.902;2023-02-01T14:21:46;9.40;;;3.77;;
18170;SDS011;9210;48.358;10.902;2023-02-01T14:24:16;8.13;;;3.40;;
18170;SDS011;9210;48.358;10.902;2023-02-01T14:26:49;6.47;;;3.30;;
18170;SDS011;9210;48.358;10.902;2023-02-01T14:29:24;8.80;;;3.10;;
18170;SDS011;9210;48.358;10.902;2023-02-01T14:31:54;6.70;;;3.40;;
18170;SDS011;9210;48.358;10.902;2023-02-01T14:34:39;6.33;;;2.90;;
18170;SDS011;9210;48.358;10.902;2023-02-01T14:37:12;9.60;;;3.03;;
18170;SDS011;9210;48.358;10.902;2023-02-01T14:39:53;9.63;;;3.10;;
18170;SDS011;9210;48.358;10.902;2023-02-01T14:42:24;7.53;;;3.10;;
18170;SDS011;9210;48.358;10.902;2023-02-01T14:44:55;9.40;;;2.90;;
18170;SDS011;9210;48.358;10.902;2023-02-01T14:47:27;10.23;;;2.90;;
18170;SDS011;9210;48.358;10.902;2023-02-01T14:49:57;7.10;;;3.27;;
18170;SDS011;9210;48.358;10.902;2023-02-01T14:52:29;8.67;;;3.20;;
18170;SDS011;9210;48.358;10.902;2023-02-01T14:55:00;7.50;;;2.70;;
18170;SDS011;9210;48.358;10.902;2023-02-01T14:57:30;7.03;;;2.80;;
18170;SDS011;9210;48.358;10.902;2023-02-01T15:00:07;7.67;;;2.60;;
18170;SDS011;9210;48.358;10.902;2023-02-01T15:02:40;8.07;;;2.90;;
18170;SDS011;9210;48.358;10.902;2023-02-01T15:05:20;9.47;;;2.90;;
18170;SDS011;9210;48.358;10.902;2023-02-01T15:07:51;10.33;;;2.70;;
18170;SDS011;9210;48.358;10.902;2023-02-01T15:10:20;10.03;;;2.57;;
18170;SDS011;9210;48.358;10.902;2023-02-01T15:12:49;12.03;;;2.40;;
18170;SDS011;9210;48.358;10.902;2023-02-01T15:15:20;10.53;;;2.30;;
18170;SDS011;9210;48.358;10.902;2023-02-01T15:17:50;6.50;;;2.17;;
18170;SDS011;9210;48.358;10.902;2023-02-01T15:20:20;8.23;;;2.43;;
18170;SDS011;9210;48.358;10.902;2023-02-01T15:22:53;8.80;;;2.90;;